Time;durP1;ratioP1;P1;durP2;ratioP2;P2;SDS_P1;SDS_P2;PMS_P1;PMS_P2;Temp;Humidity;BMP_temperature;BMP_pressure;BME280_temperature;BME280_humidity;BME280_pressure;Samples;Min_cycle;Max_cycle;Signal;HPM_P1;HPM_P2
2024/03/18 00:00:22;;;;;;;1.30;0.70;;;23.10;60.50;;;;;;5102383;28;20070;-47
2024/03/18 00:02:52;;;;;;;1.30;0.50;;;23.30;60.10;;;;;;5104497;28;20243;-51
2024/03/18 00:05:20;;;;;;;2.05;0.90;;;23.50;59.50;;;;;;5101487;28;20083;-49
2024/03/18 00:07:47;;;;;;;2.65;1.00;;;23.50;60.00;;;;;;5102458;28;20571;-47
2024/03/18 00:10:14;;;;;;;2.90;0.80;;;23.30;59.90;;;;;;5104500;27;20115;-51
2024/03/18 00:12:42;;;;;;;4.05;0.80;;;23.30;59.80;;;;;;5098619;28;20068;-47
2024/03/18 00:15:10;;;;;;;21.35;14.50;;;23.30;60.00;;;;;;5102710;28;21309;-47
2024/03/18 00:17:37;;;;;;;0.63;0.43;;;23.40;59.60;;;;;;5104913;28;20100;-47
2024/03/18 00:20:07;;;;;;;10.48;8.05;;;23.50;58.80;;;;;;5102602;28;20080;-48
2024/03/18 00:22:35;;;;;;;3.55;0.47;;;23.50;58.90;;;;;;5103313;28;20068;-50
2024/03/18 00:25:02;;;;;;;1.92;0.65;;;23.60;59.30;;;;;;5102510;28;20068;-50
2024/03/18 00:27:29;;;;;;;0.90;0.80;;;23.80;59.30;;;;;;5095050;28;20114;-49
2024/03/18 00:30:02;;;;;;;2.30;0.65;;;23.90;58.80;;;;;;5106257;28;20575;-49
2024/03/18 00:32:31;;;;;;;2.45;0.77;;;23.70;58.70;;;;;;5099283;28;20076;-50
2024/03/18 00:34:58;;;;;;;2.55;0.80;;;23.60;59.20;;;;;;5101307;28;20457;-50
2024/03/18 00:37:25;;;;;;;1.20;0.73;;;23.30;58.60;;;;;;5101752;28;20068;-53
2024/03/18 00:39:52;;;;;;;3.10;0.88;;;23.00;58.80;;;;;;5103733;28;20174;-55
2024/03/18 00:42:18;;;;;;;2.78;0.80;;;22.90;59.40;;;;;;5098081;28;20514;-54
2024/03/18 00:44:45;;;;;;;3.00;0.90;;;22.90;59.80;;;;;;5102470;28;20076;-49
2024/03/18 00:47:11;;;;;;;2.58;0.90;;;22.90;60.00;;;;;;5107880;28;20071;-51
2024/03/18 00:49:38;;;;;;;1.73;0.65;;;22.70;59.80;;;;;;5104523;28;20068;-52
2024/03/18 00:52:07;;;;;;;2.17;0.70;;;22.70;59.80;;;;;;5102563;28;20117;-51
2024/03/18 00:54:35;;;;;;;0.70;0.70;;;22.50;60.30;;;;;;5096357;28;20096;-52
2024/03/18 00:57:02;;;;;;;2.05;0.60;;;22.40;61.30;;;;;;5100695;28;20104;-52
2024/03/18 00:59:28;;;;;;;5.15;4.72;;;22.40;62.00;;;;;;5106137;28;20192;-53
2024/03/18 01:01:55;;;;;;;4.95;1.10;;;22.30;62.20;;;;;;5100217;28;20064;-48
2024/03/18 01:04:23;;;;;;;1.70;0.70;;;22.20;62.40;;;;;;5104706;28;20080;-48
2024/03/18 01:06:49;;;;;;;3.22;0.98;;;22.20;62.60;;;;;;5105316;28;20068;-48
2024/03/18 01:09:16;;;;;;;4.72;1.00;;;22.10;62.70;;;;;;5111932;27;20518;-52
2024/03/18 01:11:43;;;;;;;2.80;1.20;;;22.10;63.30;;;;;;5107339;28;21212;-48
2024/03/18 01:14:09;;;;;;;1.40;0.70;;;22.10;63.60;;;;;;5105191;28;20211;-49
2024/03/18 01:16:36;;;;;;;4.38;0.75;;;22.00;63.70;;;;;;5109223;27;20124;-48
2024/03/18 01:19:02;;;;;;;1.98;0.77;;;21.90;64.00;;;;;;5113050;28;20480;-48
2024/03/18 01:21:29;;;;;;;3.00;0.90;;;21.70;63.60;;;;;;5115456;28;20060;-47
2024/03/18 01:23:55;;;;;;;2.15;0.77;;;21.60;63.90;;;;;;5108023;28;20483;-48
2024/03/18 01:26:22;;;;;;;2.30;1.00;;;21.60;63.80;;;;;;5100344;28;20526;-47
2024/03/18 01:28:49;;;;;;;3.67;1.60;;;21.50;64.40;;;;;;5105670;28;20531;-54
2024/03/18 01:31:15;;;;;;;2.00;1.42;;;21.40;65.00;;;;;;5103654;27;20414;-48
2024/03/18 01:33:42;;;;;;;5.93;1.30;;;21.30;64.60;;;;;;5107287;27;20068;-51
2024/03/18 01:36:08;;;;;;;4.43;2.20;;;21.30;65.10;;;;;;5100305;27;20994;-51
2024/03/18 01:38:38;;;;;;;6.82;1.75;;;21.20;65.00;;;;;;5104912;28;20194;-55
2024/03/18 01:41:04;;;;;;;3.17;1.80;;;21.20;65.30;;;;;;5101587;28;20064;-48
2024/03/18 01:43:31;;;;;;;4.25;1.48;;;21.10;65.60;;;;;;5102963;28;20536;-52
2024/03/18 01:45:57;;;;;;;5.13;1.90;;;21.10;66.30;;;;;;5106478;28;20159;-53
2024/03/18 01:48:24;;;;;;;4.03;1.75;;;21.00;66.70;;;;;;5104226;28;20068;-52
2024/03/18 01:50:53;;;;;;;3.10;1.55;;;20.90;67.50;;;;;;5105947;28;20221;-51
2024/03/18 01:53:21;;;;;;;4.47;1.98;;;20.80;67.50;;;;;;5101736;27;20076;-52
2024/03/18 01:55:48;;;;;;;9.68;2.75;;;20.80;68.10;;;;;;5105593;28;20100;-50
2024/03/18 01:58:17;;;;;;;7.88;2.63;;;20.70;68.10;;;;;;5108742;27;20068;-50
2024/03/18 02:00:44;;;;;;;7.65;2.38;;;20.70;68.10;;;;;;5103650;27;20064;-49
2024/03/18 02:03:11;;;;;;;4.35;1.73;;;20.70;68.30;;;;;;5105100;28;20076;-49
2024/03/18 02:05:38;;;;;;;4.68;1.73;;;20.60;68.00;;;;;;5110884;28;20127;-48
2024/03/18 02:08:06;;;;;;;4.20;2.00;;;20.60;67.80;;;;;;5101786;28;20500;-51
2024/03/18 02:10:33;;;;;;;4.72;2.10;;;20.50;68.40;;;;;;5104085;28;20085;-50
2024/03/18 02:13:04;;;;;;;7.88;1.90;;;20.50;69.20;;;;;;5102023;28;20079;-49
2024/03/18 02:15:31;;;;;;;5.35;1.95;;;20.40;68.60;;;;;;5102977;28;20112;-51
2024/03/18 02:17:58;;;;;;;5.13;1.73;;;20.30;69.60;;;;;;5115480;27;20076;-48
2024/03/18 02:20:26;;;;;;;6.03;2.00;;;20.20;70.20;;;;;;5106822;28;20171;-49
2024/03/18 02:22:52;;;;;;;2.95;1.50;;;20.20;69.60;;;;;;5104283;28;20099;-51
2024/03/18 02:25:20;;;;;;;4.95;1.50;;;20.10;69.00;;;;;;5105815;28;20117;-51
2024/03/18 02:27:47;;;;;;;3.65;1.27;;;20.10;69.60;;;;;;5104735;27;20110;-53
2024/03/18 02:30:15;;;;;;;6.18;1.70;;;20.00;70.30;;;;;;5101603;28;20069;-51
2024/03/18 02:32:42;;;;;;;4.45;1.77;;;19.90;71.50;;;;;;5104331;28;20579;-53
2024/03/18 02:35:11;;;;;;;2.97;1.30;;;19.80;71.30;;;;;;5105515;28;20111;-50
2024/03/18 02:37:38;;;;;;;5.47;1.85;;;19.80;71.70;;;;;;5102539;28;20425;-49
2024/03/18 02:40:08;;;;;;;4.75;2.13;;;19.70;72.40;;;;;;5104689;28;20494;-49
2024/03/18 02:42:39;;;;;;;9.75;2.92;;;19.60;72.70;;;;;;5103504;27;20526;-48
2024/03/18 02:45:11;;;;;;;16.98;3.72;;;19.60;72.70;;;;;;5105986;28;20444;-49
2024/03/18 02:47:41;;;;;;;10.73;4.15;;;19.60;73.20;;;;;;5102188;28;20079;-49
2024/03/18 02:50:10;;;;;;;9.30;3.90;;;19.40;72.40;;;;;;5103560;28;20144;-53
2024/03/18 02:52:42;;;;;;;8.57;4.10;;;19.40;72.40;;;;;;5103026;27;20104;-51
2024/03/18 02:55:09;;;;;;;7.72;4.18;;;19.40;73.60;;;;;;5101866;27;20145;-48
2024/03/18 02:57:36;;;;;;;13.82;4.70;;;19.30;73.80;;;;;;5106276;28;20158;-51
2024/03/18 03:00:06;;;;;;;11.10;4.80;;;19.30;74.40;;;;;;5102225;28;20075;-54
2024/03/18 03:02:33;;;;;;;18.50;5.90;;;19.20;75.00;;;;;;5106007;28;20075;-59
2024/03/18 03:05:00;;;;;;;16.05;6.05;;;19.10;75.50;;;;;;5103994;28;20444;-51
2024/03/18 03:07:26;;;;;;;12.10;5.20;;;19.00;75.90;;;;;;5101167;28;20076;-49
2024/03/18 03:09:53;;;;;;;16.42;5.10;;;18.90;77.50;;;;;;5104318;28;20068;-48
2024/03/18 03:12:20;;;;;;;17.23;5.22;;;18.90;78.10;;;;;;5101780;28;20103;-49
2024/03/18 03:14:46;;;;;;;11.70;4.47;;;18.80;78.20;;;;;;5105232;27;20092;-53
2024/03/18 03:17:13;;;;;;;15.85;4.65;;;18.80;78.70;;;;;;5103134;28;20084;-48
2024/03/18 03:19:40;;;;;;;12.35;4.32;;;18.70;79.30;;;;;;5101980;28;20092;-51
2024/03/18 03:22:07;;;;;;;14.63;4.65;;;18.60;79.80;;;;;;5102682;28;20068;-51
2024/03/18 03:24:33;;;;;;;15.27;5.18;;;18.60;80.90;;;;;;5104374;28;20167;-55
2024/03/18 03:27:00;;;;;;;13.80;4.53;;;18.50;81.10;;;;;;5101021;28;20207;-50
2024/03/18 03:29:26;;;;;;;9.90;5.55;;;18.40;81.30;;;;;;5103631;28;20080;-50
2024/03/18 03:31:53;;;;;;;20.65;8.07;;;18.30;82.60;;;;;;5105139;28;20071;-49
2024/03/18 03:34:19;;;;;;;19.20;7.57;;;18.20;81.70;;;;;;5105560;27;20112;-51
2024/03/18 03:36:45;;;;;;;15.90;6.43;;;18.10;81.90;;;;;;5106309;28;20060;-50
2024/03/18 03:39:12;;;;;;;15.43;5.57;;;18.00;81.50;;;;;;5100685;28;20089;-52
2024/03/18 03:41:39;;;;;;;23.67;4.60;;;18.00;81.60;;;;;;5103266;28;20107;-54
2024/03/18 03:44:06;;;;;;;15.90;5.32;;;17.90;82.20;;;;;;5101420;28;20071;-51
2024/03/18 03:46:32;;;;;;;15.88;4.70;;;17.90;82.70;;;;;;5104520;28;20068;-57
2024/03/18 03:48:59;;;;;;;15.38;5.00;;;17.90;82.80;;;;;;5102992;28;20085;-54
2024/03/18 03:51:25;;;;;;;17.77;4.88;;;17.80;82.70;;;;;;5101278;28;20143;-49
2024/03/18 03:53:52;;;;;;;10.95;4.72;;;17.80;83.20;;;;;;5102729;28;21398;-51
2024/03/18 03:56:18;;;;;;;16.75;4.90;;;17.80;85.30;;;;;;5100396;28;20064;-48
2024/03/18 03:58:50;;;;;;;13.95;5.28;;;17.70;84.90;;;;;;5099121;28;20080;-54
2024/03/18 04:01:21;;;;;;;18.48;4.97;;;17.70;85.30;;;;;;5100533;27;20083;-52
2024/03/18 04:03:48;;;;;;;13.40;4.60;;;17.60;85.60;;;;;;5104638;28;20068;-57
2024/03/18 04:06:14;;;;;;;27.67;5.40;;;17.60;85.80;;;;;;5102314;28;20068;-56
2024/03/18 04:08:41;;;;;;;30.23;5.40;;;17.60;86.60;;;;;;5099927;28;20076;-49
2024/03/18 04:11:07;;;;;;;16.58;4.95;;;17.60;86.80;;;;;;5101173;28;20117;-54
2024/03/18 04:13:34;;;;;;;30.13;5.43;;;17.50;87.40;;;;;;5102883;28;20171;-51
2024/03/18 04:16:01;;;;;;;32.53;6.45;;;17.50;87.50;;;;;;5102308;28;20162;-52
2024/03/18 04:18:29;;;;;;;28.45;6.18;;;17.50;87.90;;;;;;5106554;28;20079;-50
2024/03/18 04:20:57;;;;;;;35.03;7.32;;;17.50;88.10;;;;;;5107520;28;20067;-53
2024/03/18 04:23:23;;;;;;;23.25;6.90;;;18.00;86.80;;;;;;5110549;28;20120;-50
2024/03/18 04:25:50;;;;;;;35.53;7.75;;;18.20;84.70;;;;;;5107141;28;20080;-53
2024/03/18 04:28:16;;;;;;;32.60;7.93;;;18.30;85.50;;;;;;5108811;28;20111;-52
2024/03/18 04:30:43;;;;;;;29.30;7.30;;;18.40;84.80;;;;;;5108771;28;20521;-54
2024/03/18 04:33:09;;;;;;;27.23;7.60;;;18.30;85.10;;;;;;5108499;28;20121;-53
2024/03/18 04:35:36;;;;;;;23.40;7.55;;;18.40;85.00;;;;;;5111890;28;20145;-49
2024/03/18 04:38:03;;;;;;;25.05;7.82;;;18.30;84.80;;;;;;5112086;28;20197;-50
2024/03/18 04:40:29;;;;;;;24.33;7.68;;;18.30;85.30;;;;;;5110692;28;20075;-53
2024/03/18 04:42:56;;;;;;;40.70;8.60;;;18.30;86.30;;;;;;5113913;28;20072;-53
2024/03/18 04:45:23;;;;;;;32.65;9.13;;;18.40;83.90;;;;;;5111881;28;20068;-52
2024/03/18 04:47:51;;;;;;;35.00;8.80;;;18.60;85.10;;;;;;5104750;27;20084;-51
2024/03/18 04:50:20;;;;;;;22.58;7.72;;;18.70;83.40;;;;;;5114494;28;20096;-53
2024/03/18 04:52:46;;;;;;;24.52;7.95;;;18.60;84.30;;;;;;5109496;28;20139;-54
2024/03/18 04:55:13;;;;;;;27.05;8.85;;;18.50;84.70;;;;;;5112440;28;20144;-55
2024/03/18 04:57:40;;;;;;;33.33;8.73;;;18.30;85.40;;;;;;5111660;27;20500;-48
2024/03/18 05:00:11;;;;;;;22.67;9.35;;;18.20;83.60;;;;;;5107613;28;20072;-53
2024/03/18 05:02:41;;;;;;;31.30;9.65;;;18.10;84.30;;;;;;5101188;28;20102;-57
2024/03/18 05:05:12;;;;;;;28.38;9.65;;;18.10;85.60;;;;;;5102055;27;20068;-54
2024/03/18 05:07:40;;;;;;;52.72;11.13;;;18.00;86.70;;;;;;5111629;28;20459;-56
2024/03/18 05:10:07;;;;;;;30.13;10.20;;;18.00;86.70;;;;;;5114299;28;20075;-53
2024/03/18 05:12:34;;;;;;;42.20;12.57;;;18.00;87.50;;;;;;5106464;28;20092;-55
2024/03/18 05:15:01;;;;;;;41.05;12.52;;;17.90;86.00;;;;;;5114181;28;20519;-55
2024/03/18 05:17:27;;;;;;;42.53;12.90;;;18.00;86.50;;;;;;5108486;28;20593;-53
2024/03/18 05:19:55;;;;;;;46.45;14.88;;;17.90;87.80;;;;;;5101762;28;20395;-49
2024/03/18 05:22:22;;;;;;;44.58;16.83;;;17.80;88.10;;;;;;5114559;28;20094;-49
2024/03/18 05:24:48;;;;;;;47.15;17.77;;;17.70;88.10;;;;;;5111172;28;20068;-53
2024/03/18 05:27:17;;;;;;;45.88;17.08;;;17.60;87.60;;;;;;5095902;28;20592;-50
2024/03/18 05:29:43;;;;;;;60.15;18.90;;;17.50;88.80;;;;;;5107678;28;20080;-51
2024/03/18 05:32:12;;;;;;;45.17;18.77;;;17.70;89.30;;;;;;5109568;28;20077;-51
2024/03/18 05:34:40;;;;;;;50.47;18.95;;;17.70;88.80;;;;;;5110520;28;20140;-49
2024/03/18 05:37:06;;;;;;;53.42;21.88;;;17.70;88.90;;;;;;5113702;28;20075;-50
2024/03/18 05:39:33;;;;;;;60.60;24.25;;;17.70;88.40;;;;;;5112175;28;20068;-49
2024/03/18 05:42:00;;;;;;;57.75;26.63;;;17.70;88.40;;;;;;5094948;28;20518;-53
2024/03/18 05:44:28;;;;;;;77.68;29.80;;;17.60;88.70;;;;;;5102850;28;20095;-49
2024/03/18 05:46:54;;;;;;;70.75;28.33;;;17.50;88.90;;;;;;5098515;28;20441;-51
2024/03/18 05:49:21;;;;;;;67.60;27.90;;;17.50;88.90;;;;;;5112254;28;20095;-51
2024/03/18 05:51:52;;;;;;;68.15;28.17;;;17.50;89.00;;;;;;5114231;28;20113;-51
2024/03/18 05:54:19;;;;;;;58.97;24.80;;;17.40;89.30;;;;;;5110288;28;20119;-52
2024/03/18 05:56:49;;;;;;;56.10;24.58;;;17.40;89.20;;;;;;5115042;28;20473;-53
2024/03/18 05:59:15;;;;;;;63.92;25.17;;;17.30;90.00;;;;;;5113042;28;20083;-53
2024/03/18 06:01:43;;;;;;;52.90;24.17;;;17.30;89.70;;;;;;5114899;27;20068;-50
2024/03/18 06:04:11;;;;;;;56.88;25.58;;;17.30;89.80;;;;;;5112486;28;21090;-52
2024/03/18 06:06:39;;;;;;;76.00;26.20;;;17.30;90.10;;;;;;5110107;28;20064;-50
2024/03/18 06:09:05;;;;;;;57.08;24.08;;;17.20;90.50;;;;;;5103205;27;20080;-53
2024/03/18 06:11:33;;;;;;;57.30;23.48;;;17.20;90.50;;;;;;5107679;28;20087;-54
2024/03/18 06:14:01;;;;;;;54.42;24.30;;;17.20;90.60;;;;;;5105974;28;20112;-53
2024/03/18 06:16:28;;;;;;;47.83;22.08;;;17.20;91.00;;;;;;5099862;28;20072;-54
2024/03/18 06:18:54;;;;;;;47.30;20.80;;;17.10;90.90;;;;;;5110966;28;20064;-53
2024/03/18 06:21:28;;;;;;;44.05;18.73;;;17.10;90.80;;;;;;5107580;28;20074;-52
2024/03/18 06:24:05;;;;;;;39.50;18.33;;;17.10;91.00;;;;;;5108439;28;20594;-53
2024/03/18 06:26:32;;;;;;;54.25;18.80;;;17.00;91.60;;;;;;5110059;28;20076;-52
2024/03/18 06:28:58;;;;;;;41.40;17.98;;;16.90;91.50;;;;;;5105638;28;20113;-58
2024/03/18 06:31:26;;;;;;;42.45;18.48;;;16.90;91.80;;;;;;5102283;27;20083;-52
2024/03/18 06:33:54;;;;;;;39.72;16.45;;;16.80;91.40;;;;;;5104103;27;20124;-52
2024/03/18 06:36:20;;;;;;;58.90;31.05;;;16.80;91.50;;;;;;5110904;28;20117;-52
2024/03/18 06:38:47;;;;;;;40.90;16.30;;;16.80;91.40;;;;;;5109760;28;20133;-53
2024/03/18 06:41:13;;;;;;;42.35;15.93;;;16.70;91.30;;;;;;5109852;28;20076;-52
2024/03/18 06:43:40;;;;;;;38.80;17.90;;;16.70;91.40;;;;;;5109524;28;20072;-53
2024/03/18 06:46:09;;;;;;;51.33;17.35;;;16.70;91.90;;;;;;5108222;28;20080;-54
2024/03/18 06:48:38;;;;;;;52.03;19.25;;;16.70;91.90;;;;;;5110168;28;20218;-53
2024/03/18 06:51:14;;;;;;;46.10;19.15;;;16.60;92.00;;;;;;5093820;28;20083;-49
2024/03/18 06:53:41;;;;;;;63.30;20.85;;;16.70;92.10;;;;;;5091847;28;20425;-50
2024/03/18 06:56:09;;;;;;;47.88;20.10;;;16.60;92.40;;;;;;5090371;28;20079;-48
2024/03/18 06:58:39;;;;;;;51.78;20.40;;;16.50;92.50;;;;;;5103419;27;20647;-53
2024/03/18 07:01:06;;;;;;;53.83;19.30;;;16.60;92.40;;;;;;5112024;28;20513;-53
2024/03/18 07:03:33;;;;;;;55.70;21.35;;;16.60;92.50;;;;;;5102993;28;20079;-53
2024/03/18 07:06:01;;;;;;;61.13;19.95;;;16.50;93.00;;;;;;5101334;28;20060;-53
2024/03/18 07:08:29;;;;;;;52.40;20.73;;;16.50;93.10;;;;;;5107094;27;20181;-54
2024/03/18 07:10:55;;;;;;;53.67;19.63;;;16.50;93.20;;;;;;5105784;28;20490;-48
2024/03/18 07:13:22;;;;;;;53.63;18.48;;;16.60;93.20;;;;;;5107106;28;20071;-53
2024/03/18 07:15:48;;;;;;;39.28;17.15;;;16.50;93.30;;;;;;5105498;28;20588;-53
2024/03/18 07:18:15;;;;;;;55.58;19.15;;;16.30;93.70;;;;;;5106305;28;20088;-54
2024/03/18 07:20:41;;;;;;;50.15;18.08;;;16.30;93.80;;;;;;5100820;28;20068;-54
2024/03/18 07:23:11;;;;;;;42.92;17.23;;;16.30;94.20;;;;;;5105018;28;20151;-50
2024/03/18 07:25:38;;;;;;;44.40;18.98;;;16.20;94.50;;;;;;5104975;28;20417;-53
2024/03/18 07:28:05;;;;;;;50.67;18.38;;;16.10;94.60;;;;;;5100311;28;20581;-52
2024/03/18 07:30:31;;;;;;;50.20;19.25;;;16.10;94.70;;;;;;5101247;28;20133;-54
2024/03/18 07:32:57;;;;;;;71.90;35.67;;;16.00;94.90;;;;;;5099802;28;20073;-52
2024/03/18 07:35:24;;;;;;;52.65;20.05;;;16.10;94.60;;;;;;5103808;28;20104;-50
2024/03/18 07:37:51;;;;;;;47.33;20.00;;;16.00;95.00;;;;;;5102486;28;20201;-51
2024/03/18 07:40:18;;;;;;;55.78;19.95;;;16.00;95.10;;;;;;5107929;28;20068;-53
2024/03/18 07:42:44;;;;;;;52.00;19.35;;;16.00;95.10;;;;;;5105663;28;20091;-54
2024/03/18 07:45:11;;;;;;;48.38;19.13;;;16.00;95.10;;;;;;5109697;28;20436;-53
2024/03/18 07:47:37;;;;;;;52.22;19.48;;;16.00;95.10;;;;;;5108285;28;20402;-49
2024/03/18 07:50:04;;;;;;;51.85;19.63;;;16.00;95.60;;;;;;5104401;28;20068;-53
2024/03/18 07:52:31;;;;;;;54.80;20.05;;;15.90;95.70;;;;;;5100186;28;20073;-58
2024/03/18 07:55:00;;;;;;;46.17;20.33;;;15.80;95.80;;;;;;5102270;28;20096;-51
2024/03/18 07:57:28;;;;;;;47.78;21.75;;;15.80;95.50;;;;;;5096687;28;20159;-49
2024/03/18 07:59:55;;;;;;;57.80;22.98;;;15.70;95.50;;;;;;5095406;28;20069;-49
2024/03/18 08:02:22;;;;;;;59.97;24.45;;;15.80;95.40;;;;;;5090061;28;20068;-50
2024/03/18 08:04:50;;;;;;;54.67;23.85;;;15.80;95.50;;;;;;5107986;28;20522;-52
2024/03/18 08:07:18;;;;;;;54.17;24.75;;;15.90;95.30;;;;;;5103701;28;20064;-50
2024/03/18 08:09:45;;;;;;;52.53;25.33;;;15.80;95.30;;;;;;5102018;28;20676;-50
2024/03/18 08:12:12;;;;;;;51.45;23.98;;;15.80;95.40;;;;;;5101823;28;20064;-51
2024/03/18 08:14:42;;;;;;;57.40;24.73;;;15.80;96.10;;;;;;5106036;28;20126;-49
2024/03/18 08:17:09;;;;;;;68.15;25.63;;;15.70;95.70;;;;;;5108352;28;20068;-50
2024/03/18 08:19:36;;;;;;;50.20;24.88;;;15.70;95.80;;;;;;5105372;28;20137;-49
2024/03/18 08:22:04;;;;;;;60.35;25.08;;;15.70;95.80;;;;;;5107256;28;20086;-52
2024/03/18 08:24:32;;;;;;;46.22;25.10;;;15.70;96.20;;;;;;5097433;28;20164;-52
2024/03/18 08:26:58;;;;;;;61.92;26.58;;;15.60;96.30;;;;;;5107015;28;20453;-48
2024/03/18 08:29:27;;;;;;;53.13;26.15;;;15.70;96.00;;;;;;5108009;28;20119;-51
2024/03/18 08:31:54;;;;;;;60.35;24.65;;;15.70;95.60;;;;;;5104599;28;20163;-51
2024/03/18 08:34:20;;;;;;;53.65;24.17;;;15.60;95.70;;;;;;5104658;28;20131;-53
2024/03/18 08:36:46;;;;;;;48.85;22.27;;;15.60;96.20;;;;;;5102991;28;20081;-54
2024/03/18 08:39:14;;;;;;;54.95;24.00;;;15.50;96.30;;;;;;5105546;28;20090;-50
2024/03/18 08:41:40;;;;;;;53.95;23.58;;;15.50;96.80;;;;;;5101388;28;20151;-53
2024/03/18 08:44:07;;;;;;;45.85;23.63;;;15.50;96.50;;;;;;5103744;28;20064;-51
2024/03/18 08:46:33;;;;;;;54.17;23.35;;;15.40;96.20;;;;;;5107083;28;20072;-54
2024/03/18 08:48:59;;;;;;;48.90;24.13;;;15.40;96.40;;;;;;5105853;28;20190;-49
2024/03/18 08:51:26;;;;;;;46.03;22.25;;;15.40;97.20;;;;;;5108513;28;20076;-52
2024/03/18 08:53:52;;;;;;;46.58;22.65;;;15.30;97.20;;;;;;5106054;28;20117;-50
2024/03/18 08:56:19;;;;;;;47.60;21.48;;;15.40;96.70;;;;;;5098860;28;20060;-53
2024/03/18 08:58:45;;;;;;;47.53;21.45;;;15.40;96.40;;;;;;5104683;28;20526;-51
2024/03/18 09:01:12;;;;;;;42.63;20.33;;;15.30;96.50;;;;;;5101124;28;20110;-49
2024/03/18 09:03:39;;;;;;;38.90;19.25;;;15.30;96.30;;;;;;5103322;28;20064;-56
2024/03/18 09:06:05;;;;;;;38.13;18.50;;;15.30;96.30;;;;;;5101456;28;20156;-49
2024/03/18 09:08:32;;;;;;;38.22;17.02;;;15.20;96.90;;;;;;5099316;28;20442;-51
2024/03/18 09:10:59;;;;;;;30.00;15.73;;;15.30;97.10;;;;;;5107470;28;20425;-50
2024/03/18 09:13:25;;;;;;;25.05;14.35;;;15.30;97.10;;;;;;5104810;28;20147;-54
2024/03/18 09:15:52;;;;;;;30.88;14.88;;;15.30;96.90;;;;;;5105231;28;20191;-52
2024/03/18 09:18:18;;;;;;;32.38;14.15;;;15.30;97.10;;;;;;5108079;28;20083;-52
2024/03/18 09:20:48;;;;;;;36.95;14.55;;;15.20;97.40;;;;;;5105510;28;20545;-50
2024/03/18 09:23:14;;;;;;;26.05;13.80;;;15.10;97.30;;;;;;5103886;28;20099;-50
2024/03/18 09:25:41;;;;;;;26.23;14.07;;;15.10;97.70;;;;;;5099025;28;20155;-48
2024/03/18 09:28:09;;;;;;;27.17;14.18;;;15.10;97.60;;;;;;5108312;28;20108;-49
2024/03/18 09:30:36;;;;;;;31.83;15.00;;;15.10;97.90;;;;;;5107765;28;20060;-48
2024/03/18 09:33:02;;;;;;;28.73;14.75;;;15.00;97.90;;;;;;5109791;28;20398;-52
2024/03/18 09:35:28;;;;;;;30.08;15.90;;;14.90;98.10;;;;;;5104292;28;20104;-49
2024/03/18 09:37:55;;;;;;;26.85;15.20;;;15.00;98.00;;;;;;5106702;27;20106;-51
2024/03/18 09:40:26;;;;;;;29.70;16.38;;;14.90;98.20;;;;;;5110647;28;20071;-48
2024/03/18 09:42:53;;;;;;;30.17;15.13;;;14.90;98.30;;;;;;5109333;27;20064;-49
2024/03/18 09:45:22;;;;;;;30.77;14.82;;;14.90;98.00;;;;;;5110910;28;20064;-49
2024/03/18 09:47:49;;;;;;;30.98;14.98;;;14.80;98.40;;;;;;5099144;28;20087;-51
2024/03/18 09:50:16;;;;;;;29.08;15.15;;;14.80;98.40;;;;;;5109691;28;20072;-51
2024/03/18 09:52:46;;;;;;;30.05;14.15;;;14.80;98.30;;;;;;5108017;28;20518;-53
2024/03/18 09:55:30;;;;;;;31.58;15.68;;;14.70;98.60;;;;;;5097533;28;20553;-52
2024/03/18 09:57:58;;;;;;;31.85;12.98;;;14.70;98.60;;;;;;5104338;28;20064;-52
2024/03/18 10:00:24;;;;;;;28.15;13.50;;;14.70;98.50;;;;;;5100188;28;20462;-47
2024/03/18 10:02:51;;;;;;;30.83;12.95;;;14.70;98.60;;;;;;5108867;28;20079;-49
2024/03/18 10:05:18;;;;;;;31.90;12.75;;;14.80;98.60;;;;;;5109691;28;20522;-51
2024/03/18 10:07:46;;;;;;;21.98;11.50;;;14.70;98.30;;;;;;5101661;27;20072;-48
2024/03/18 10:10:17;;;;;;;26.63;11.15;;;14.70;98.50;;;;;;5108906;28;20102;-51
2024/03/18 10:12:44;;;;;;;20.83;10.48;;;14.70;99.10;;;;;;5103486;28;20095;-51
2024/03/18 10:15:13;;;;;;;19.67;9.35;;;14.70;98.90;;;;;;5103361;28;20104;-50
2024/03/18 10:17:43;;;;;;;18.80;9.68;;;14.70;98.50;;;;;;5103457;28;20204;-52
2024/03/18 10:20:20;;;;;;;18.98;8.48;;;14.70;98.30;;;;;;5102422;28;20133;-52
2024/03/18 10:22:53;;;;;;;;;;;14.70;98.30;;;;;;5105546;27;20074;-52
2024/03/18 10:25:24;;;;;;;9.70;5.10;;;14.70;97.40;;;;;;5097121;28;20003;-52
2024/03/18 10:27:51;;;;;;;11.98;5.15;;;14.80;97.10;;;;;;5109594;28;20211;-53
2024/03/18 10:30:17;;;;;;;9.10;4.57;;;14.80;97.00;;;;;;5107485;28;20155;-51
2024/03/18 10:32:45;;;;;;;12.07;4.45;;;14.80;96.60;;;;;;5105958;28;20068;-49
2024/03/18 10:35:25;;;;;;;12.38;4.38;;;14.90;97.10;;;;;;5104167;27;20140;-52
2024/03/18 10:37:58;;;;;;;11.35;4.00;;;14.80;96.90;;;;;;5099993;28;20167;-48
2024/03/18 10:40:34;;;;;;;15.68;4.68;;;14.80;96.90;;;;;;5104654;28;20102;-52
2024/03/18 10:43:11;;;;;;;9.45;3.78;;;14.80;97.00;;;;;;5105887;28;20076;-54
2024/03/18 10:45:48;;;;;;;7.78;4.18;;;14.80;97.10;;;;;;5107122;28;20078;-50
2024/03/18 10:48:19;;;;;;;6.95;3.90;;;14.70;96.80;;;;;;5120181;27;20433;-51
2024/03/18 10:50:46;;;;;;;11.70;3.83;;;14.70;97.00;;;;;;5104630;28;20084;-48
2024/03/18 10:53:20;;;;;;;9.13;3.45;;;14.60;97.30;;;;;;5106778;28;20406;-52
2024/03/18 10:55:52;;;;;;;8.68;4.07;;;14.60;97.40;;;;;;5101734;28;20530;-52
2024/03/18 10:58:21;;;;;;;9.52;3.78;;;14.50;97.20;;;;;;5106025;28;20075;-50
2024/03/18 11:00:48;;;;;;;8.93;4.05;;;14.50;97.60;;;;;;5105911;28;20075;-52
2024/03/18 11:03:18;;;;;;;10.73;4.13;;;14.60;97.50;;;;;;5102714;28;20163;-50
2024/03/18 11:06:03;;;;;;;7.68;3.67;;;14.50;97.20;;;;;;5097089;28;20158;-51
2024/03/18 11:08:30;;;;;;;8.68;3.60;;;14.60;97.10;;;;;;5108347;28;20064;-49
2024/03/18 11:10:58;;;;;;;8.40;3.90;;;14.50;96.80;;;;;;5107165;28;20435;-51
2024/03/18 11:13:36;;;;;;;7.35;4.00;;;14.40;96.90;;;;;;5098818;28;22073;-48
2024/03/18 11:16:12;;;;;;;11.70;3.97;;;14.50;97.10;;;;;;5106413;28;20183;-48
2024/03/18 11:18:48;;;;;;;11.13;4.40;;;14.40;97.20;;;;;;5100888;28;20174;-49
2024/03/18 11:21:20;;;;;;;14.50;4.35;;;14.50;97.30;;;;;;5108576;28;20079;-51
2024/03/18 11:24:01;;;;;;;14.63;4.30;;;14.50;96.90;;;;;;5106350;28;20072;-49
2024/03/18 11:26:30;;;;;;;10.05;3.85;;;14.50;97.10;;;;;;5103755;28;20080;-49
2024/03/18 11:29:08;;;;;;;11.60;3.80;;;14.50;96.80;;;;;;5102159;28;20160;-48
2024/03/18 11:31:38;;;;;;;12.88;3.33;;;14.50;96.70;;;;;;5107177;28;20203;-48
2024/03/18 11:34:09;;;;;;;6.57;3.05;;;14.50;96.00;;;;;;5107382;28;20083;-53
2024/03/18 11:36:39;;;;;;;7.75;2.75;;;14.60;95.80;;;;;;5106954;28;20086;-51
2024/03/18 11:39:12;;;;;;;8.75;2.88;;;14.60;95.80;;;;;;5101173;28;20262;-53
2024/03/18 11:41:39;;;;;;;8.00;2.60;;;14.60;95.70;;;;;;5108676;28;20094;-49
2024/03/18 11:44:05;;;;;;;3.78;2.10;;;14.70;95.20;;;;;;5107501;28;20163;-53
2024/03/18 11:46:34;;;;;;;6.43;2.10;;;14.70;94.70;;;;;;5108954;28;20501;-52
2024/03/18 11:49:02;;;;;;;4.90;1.95;;;14.80;94.30;;;;;;5106806;28;20072;-50
2024/03/18 11:51:29;;;;;;;4.25;2.00;;;14.90;93.90;;;;;;5107695;28;20084;-49
2024/03/18 11:53:58;;;;;;;5.63;2.10;;;14.90;93.50;;;;;;5105831;28;20090;-51
2024/03/18 11:56:25;;;;;;;4.75;1.85;;;15.00;93.30;;;;;;5107227;28;20091;-50
2024/03/18 11:58:55;;;;;;;5.75;2.00;;;15.00;93.30;;;;;;5106212;28;20086;-51
2024/03/18 12:01:28;;;;;;;4.03;2.38;;;15.00;93.40;;;;;;5106613;28;20170;-53
2024/03/18 12:03:55;;;;;;;4.35;2.63;;;15.00;93.50;;;;;;5108001;28;20510;-50
2024/03/18 12:06:22;;;;;;;9.88;3.80;;;14.90;93.50;;;;;;5105739;28;20064;-48
2024/03/18 12:08:49;;;;;;;6.93;4.00;;;14.90;93.30;;;;;;5106591;28;20061;-52
2024/03/18 12:11:16;;;;;;;8.20;4.03;;;14.90;93.30;;;;;;5107556;28;20534;-50
2024/03/18 12:13:43;;;;;;;8.52;3.78;;;14.90;93.30;;;;;;5105532;28;20099;-48
2024/03/18 12:16:13;;;;;;;10.73;4.80;;;14.90;93.10;;;;;;5106719;28;20546;-52
2024/03/18 12:18:40;;;;;;;10.32;6.63;;;14.90;93.10;;;;;;5104583;28;20194;-55
2024/03/18 12:21:06;;;;;;;14.45;9.88;;;14.90;93.40;;;;;;5105471;28;20518;-48
2024/03/18 12:29:05;;;;;;;19.23;13.27;;;15.00;93.00;;;;;;5106180;28;20130;-51
2024/03/18 12:31:37;;;;;;;17.23;12.70;;;15.00;93.20;;;;;;5099744;28;20072;-49
2024/03/18 12:34:04;;;;;;;16.48;12.20;;;14.90;93.40;;;;;;5101871;28;20079;-49
2024/03/18 12:36:34;;;;;;;19.83;11.90;;;14.90;93.60;;;;;;5106420;28;20125;-49
2024/03/18 12:39:10;;;;;;;14.65;9.70;;;14.80;93.80;;;;;;5102372;28;20075;-52
2024/03/18 12:41:37;;;;;;;15.73;8.50;;;14.70;93.80;;;;;;5107336;28;20079;-48
2024/03/18 12:44:05;;;;;;;14.65;6.85;;;14.60;94.10;;;;;;5099752;28;20076;-52